createdAt,value
2019-06-15T03:19:03.390Z,0.00
2019-06-15T03:56:02.978Z,0.00
2019-06-15T04:05:02.861Z,0.00
2019-06-15T04:07:02.848Z,0.00
2019-06-15T04:09:02.820Z,5.62
2019-06-15T04:10:02.818Z,5.62
2019-06-15T04:11:02.794Z,5.62
2019-06-15T04:12:02.788Z,5.62
2019-06-15T04:13:02.772Z,5.62
2019-06-15T04:14:02.777Z,5.62
2019-06-15T04:15:02.747Z,5.62
2019-06-15T04:16:02.738Z,5.62
2019-06-15T04:18:03.954Z,5.62
2019-06-15T04:19:02.706Z,5.62
2019-06-15T04:20:02.755Z,5.62
2019-06-15T04:21:02.674Z,5.62
2019-06-15T04:23:02.663Z,5.62
2019-06-15T04:24:02.661Z,5.62
2019-06-15T04:25:02.711Z,5.62
2019-06-15T04:26:02.616Z,5.62
2019-06-15T04:29:02.590Z,5.62
2019-06-15T04:30:02.576Z,5.62
2019-06-15T04:31:02.565Z,5.62
2019-06-15T04:32:02.560Z,5.62
2019-06-15T04:35:02.517Z,5.62
2019-06-15T04:36:02.508Z,5.62
2019-06-15T04:37:02.494Z,5.62
2019-06-15T04:40:02.500Z,5.62
2019-06-15T04:42:02.489Z,5.62
2019-06-15T04:43:02.425Z,5.62
2019-06-15T04:44:02.411Z,5.62
2019-06-15T04:45:02.403Z,5.62
2019-06-15T04:46:02.388Z,5.62
2019-06-15T04:48:02.371Z,11.25
2019-06-15T04:49:02.412Z,11.25
2019-06-15T04:50:02.368Z,11.25
2019-06-15T04:52:02.322Z,11.25
2019-06-15T04:54:02.300Z,11.25
2019-06-15T04:55:02.302Z,11.25
2019-06-15T04:56:02.297Z,11.25
2019-06-15T04:57:02.272Z,11.25
2019-06-15T05:01:02.220Z,11.25
2019-06-15T05:02:02.267Z,11.25
2019-06-15T05:04:02.187Z,5.62
2019-06-15T05:05:02.207Z,5.62
2019-06-15T05:06:02.196Z,5.62
2019-06-15T05:07:02.158Z,5.62
2019-06-15T05:08:02.146Z,5.62
2019-06-15T05:10:02.149Z,5.62
2019-06-15T05:11:03.647Z,5.62
2019-06-15T05:12:02.105Z,5.62
2019-06-15T05:13:02.099Z,5.62
2019-06-15T05:15:02.092Z,11.25
2019-06-15T05:17:02.060Z,11.25
2019-06-15T05:18:02.034Z,11.25
2019-06-15T05:20:02.038Z,11.25
2019-06-15T05:22:02.160Z,11.25
2019-06-15T05:23:01.967Z,11.25
2019-06-15T05:25:01.953Z,11.25
2019-06-15T05:26:01.936Z,11.25
2019-06-15T05:28:01.921Z,11.25
2019-06-15T05:29:01.914Z,11.25
2019-06-15T05:30:01.906Z,11.25
2019-06-15T05:32:01.881Z,11.25
2019-06-15T05:33:01.887Z,11.25
2019-06-15T05:34:01.858Z,11.25
2019-06-15T05:35:01.837Z,11.25
2019-06-15T05:38:01.806Z,5.62
2019-06-15T05:39:01.788Z,5.62
2019-06-15T05:42:01.786Z,5.62
2019-06-15T05:43:01.737Z,11.25
2019-06-15T05:44:01.741Z,11.25
2019-06-15T05:45:01.725Z,11.25
2019-06-15T05:46:01.729Z,11.25
2019-06-15T05:47:01.688Z,11.25
2019-06-15T05:50:01.656Z,11.25
2019-06-15T05:51:01.651Z,11.25
2019-06-15T05:53:01.625Z,11.25
2019-06-15T05:56:01.705Z,11.25
2019-06-15T05:57:01.584Z,11.25
2019-06-15T05:58:01.564Z,11.25
2019-06-15T05:59:01.566Z,11.25
2019-06-15T06:00:01.554Z,11.25
2019-06-15T06:01:01.527Z,11.25
2019-06-15T06:02:01.524Z,16.87
2019-06-15T06:03:01.512Z,22.50
2019-06-15T06:04:01.491Z,28.12
2019-06-15T06:05:01.503Z,33.75
2019-06-15T06:08:01.450Z,45.00
2019-06-15T06:09:01.446Z,45.00
2019-06-15T06:10:01.439Z,50.62
2019-06-15T06:11:01.423Z,61.87
2019-06-15T06:12:01.486Z,61.87
2019-06-15T06:13:01.394Z,67.50
2019-06-15T06:14:01.377Z,73.12
2019-06-15T06:15:01.370Z,78.75
2019-06-15T06:17:01.346Z,84.37
2019-06-15T06:18:01.345Z,84.37
2019-06-15T06:22:01.355Z,84.37
2019-06-15T06:23:01.281Z,84.37
2019-06-15T06:24:01.279Z,84.37
2019-06-15T06:26:01.250Z,84.37
2019-06-15T06:27:01.278Z,90.00
2019-06-15T06:28:01.223Z,90.00
2019-06-15T06:29:01.217Z,90.00
2019-06-15T06:30:01.213Z,95.62
2019-06-15T06:31:01.203Z,95.62
2019-06-15T06:32:01.187Z,95.62
2019-06-15T06:33:01.171Z,95.62
2019-06-15T06:34:01.154Z,95.62
2019-06-15T06:35:01.148Z,95.62
2019-06-15T06:36:01.227Z,101.25
2019-06-15T06:37:01.143Z,101.25
2019-06-15T06:39:01.104Z,101.25
2019-06-15T06:41:01.138Z,106.87
2019-06-15T06:42:01.065Z,106.87
2019-06-15T06:43:01.062Z,101.25
2019-06-15T06:44:01.054Z,101.25
2019-06-15T06:45:01.043Z,101.25
2019-06-15T06:46:01.041Z,95.62
2019-06-15T06:47:01.027Z,90.00
2019-06-15T06:48:01.024Z,84.37
2019-06-15T06:49:00.995Z,84.37
2019-06-15T06:51:01.068Z,90.00
2019-06-15T06:52:00.958Z,90.00
2019-06-15T06:54:00.931Z,90.00
2019-06-15T06:55:00.928Z,90.00
2019-06-15T06:56:00.921Z,95.62
2019-06-15T06:57:00.904Z,95.62
2019-06-15T06:58:00.909Z,101.25
2019-06-15T07:01:00.859Z,106.87
2019-06-15T07:02:00.909Z,106.87
2019-06-15T07:03:00.841Z,106.87
2019-06-15T07:05:00.817Z,106.87
2019-06-15T07:06:00.800Z,106.87
2019-06-15T07:07:00.800Z,112.50
2019-06-15T07:08:00.778Z,112.50
2019-06-15T07:10:00.762Z,112.50
2019-06-15T07:12:00.746Z,106.87
2019-06-15T07:13:00.723Z,95.62
2019-06-15T07:15:00.735Z,78.75
2019-06-15T07:16:00.706Z,73.12
2019-06-15T07:18:00.679Z,73.12
2019-06-15T07:19:00.667Z,135.00
2019-06-15T07:20:00.957Z,106.87
2019-06-15T07:21:00.665Z,112.50
2019-06-15T07:23:00.623Z,90.00
2019-06-15T07:24:00.609Z,84.37
2019-06-15T07:25:00.661Z,101.25
2019-06-15T07:26:00.584Z,78.75
2019-06-15T07:28:08.079Z,78.75
2019-06-15T07:29:22.242Z,118.12
2019-06-15T07:30:22.212Z,112.50
2019-06-15T07:31:22.207Z,106.87
2019-06-15T07:37:22.143Z,129.37
2019-06-15T07:38:22.138Z,129.37
2019-06-15T07:39:22.151Z,95.62
2019-06-15T07:40:22.103Z,90.00
2019-06-15T07:41:22.120Z,112.50
2019-06-15T07:42:22.098Z,123.75
2019-06-15T07:46:22.071Z,146.25
2019-06-15T07:48:22.017Z,157.50
2019-06-15T07:50:22.021Z,140.62
2019-06-15T07:52:21.991Z,123.75
2019-06-15T07:53:21.967Z,146.25
2019-06-15T07:54:21.955Z,112.50
2019-06-15T07:55:21.962Z,135.00
2019-06-15T07:56:21.945Z,106.87
2019-06-15T07:57:21.976Z,95.62
2019-06-15T08:00:21.895Z,95.62
2019-06-15T08:03:21.858Z,90.00
2019-06-15T08:04:21.850Z,123.75
2019-06-15T08:05:21.836Z,140.62
2019-06-15T08:06:21.827Z,151.87
2019-06-15T08:09:21.791Z,67.50
2019-06-15T08:11:21.778Z,50.62
2019-06-15T08:12:21.771Z,50.62
2019-06-15T08:13:21.769Z,61.87
2019-06-15T08:14:21.747Z,73.12
2019-06-15T08:15:21.740Z,118.12
2019-06-15T08:16:21.718Z,140.62
2019-06-15T08:17:21.719Z,112.50
2019-06-15T08:19:21.689Z,101.25
2019-06-15T08:21:21.661Z,90.00
2019-06-15T08:22:21.656Z,90.00
2019-06-15T08:23:21.642Z,106.87
2019-06-15T08:25:21.623Z,112.50
2019-06-15T08:26:21.623Z,106.87
2019-06-15T08:27:21.600Z,101.25
2019-06-15T08:28:21.589Z,106.87
2019-06-15T08:29:21.598Z,112.50
2019-06-15T08:30:21.569Z,118.12
2019-06-15T08:31:21.559Z,129.37
2019-06-15T08:32:21.541Z,106.87
2019-06-15T08:33:21.536Z,95.62
2019-06-15T08:34:21.529Z,73.12
2019-06-15T08:35:21.532Z,67.50
2019-06-15T08:37:21.497Z,61.87
2019-06-15T08:38:21.600Z,95.62
2019-06-15T08:39:21.468Z,73.12
2019-06-15T08:40:21.477Z,84.37
2019-06-15T08:41:21.450Z,84.37
2019-06-15T08:42:21.434Z,84.37
2019-06-15T08:43:21.426Z,84.37
2019-06-15T08:44:21.433Z,90.00
2019-06-15T08:45:21.407Z,90.00
2019-06-15T08:46:21.394Z,73.12
2019-06-15T08:47:21.402Z,90.00
2019-06-15T08:49:21.385Z,95.62
2019-06-15T08:50:21.361Z,90.00
2019-06-15T08:51:21.338Z,90.00
2019-06-15T08:52:21.327Z,67.50
2019-06-15T08:53:21.329Z,73.12
2019-06-15T08:54:21.307Z,78.75
2019-06-15T08:55:21.296Z,84.37
2019-06-15T08:56:21.308Z,95.62
2019-06-15T09:01:21.243Z,78.75
2019-06-15T09:03:21.218Z,84.37
2019-06-15T09:07:21.246Z,78.75
2019-06-15T09:08:21.158Z,78.75
2019-06-15T09:10:21.151Z,73.12
2019-06-15T09:12:21.125Z,78.75
2019-06-15T09:14:21.110Z,73.12
2019-06-15T09:34:31.492Z,90.00
2019-06-15T09:36:31.483Z,78.75
2019-06-15T09:40:31.516Z,78.75
2019-06-15T09:50:31.323Z,73.12
2019-06-15T09:51:31.308Z,73.12
2019-06-15T09:57:31.238Z,84.37
2019-06-15T10:01:31.212Z,112.50
2019-06-15T10:17:31.074Z,78.75
2019-06-15T10:19:30.990Z,73.12
2019-06-15T10:24:30.941Z,67.50
2019-06-15T10:51:52.365Z,157.50
2019-06-15T10:53:52.366Z,157.50
2019-06-15T11:35:51.894Z,67.50
2019-06-15T11:47:51.759Z,146.25
2019-06-15T11:54:51.702Z,135.00
2019-06-15T13:22:19.343Z,90.00
2019-06-15T13:30:19.268Z,56.25
2019-06-15T13:41:19.140Z,73.12
2019-06-15T14:06:40.408Z,78.75
2019-06-15T14:18:40.251Z,73.12
2019-06-15T14:23:40.205Z,84.37
2019-06-15T14:24:40.199Z,78.75
2019-06-15T14:26:40.186Z,67.50
2019-06-15T14:29:40.149Z,61.87
2019-06-15T14:34:02.619Z,61.87
2019-06-15T14:37:02.525Z,56.25
2019-06-15T14:41:02.494Z,45.00
2019-06-15T14:42:02.476Z,45.00
2019-06-15T14:44:02.475Z,45.00
2019-06-15T14:46:02.434Z,56.25
2019-06-15T14:51:02.386Z,61.87
2019-06-15T14:52:02.361Z,56.25
2019-06-15T14:54:02.339Z,61.87
2019-06-15T14:55:02.390Z,61.87
2019-06-15T14:56:02.407Z,67.50
2019-06-15T15:16:01.457Z,78.75
2019-06-15T15:17:01.442Z,78.75
2019-06-15T15:18:01.431Z,78.75
2019-06-15T15:19:01.435Z,84.37
2019-06-15T15:21:01.386Z,84.37
2019-06-15T15:23:01.390Z,95.62
2019-06-15T15:26:01.331Z,95.62
2019-06-15T15:28:01.346Z,95.62
2019-06-15T15:29:01.312Z,95.62
2019-06-15T15:30:01.651Z,95.62
2019-06-15T15:31:01.309Z,95.62
2019-06-15T15:33:01.249Z,95.62
2019-06-15T15:34:04.172Z,95.62
2019-06-15T15:35:01.237Z,106.87
2019-06-15T15:37:01.218Z,106.87
2019-06-15T15:38:01.198Z,106.87
2019-06-15T15:40:01.192Z,101.25
2019-06-15T15:41:01.167Z,101.25
2019-06-15T15:43:01.143Z,90.00
2019-06-15T15:45:01.130Z,90.00
2019-06-15T15:46:01.111Z,84.37
2019-06-15T15:49:01.099Z,73.12
2019-06-15T15:50:01.108Z,78.75
2019-06-15T15:51:01.062Z,90.00
2019-06-15T15:52:01.042Z,90.00
2019-06-15T15:53:01.043Z,90.00
2019-06-15T15:54:01.028Z,90.00
2019-06-15T15:55:01.017Z,84.37
2019-06-15T15:56:01.006Z,73.12
2019-06-15T15:57:01.002Z,73.12
2019-06-15T15:58:00.982Z,67.50
2019-06-15T15:59:00.967Z,67.50
2019-06-15T16:00:00.958Z,67.50
2019-06-15T16:01:01.000Z,67.50
2019-06-15T16:02:00.941Z,67.50
2019-06-15T16:03:00.927Z,61.87
2019-06-15T16:04:00.924Z,61.87
2019-06-15T16:05:00.915Z,56.25
2019-06-15T16:06:00.913Z,56.25
2019-06-15T16:07:00.880Z,56.25
2019-06-15T16:08:00.874Z,56.25
2019-06-15T16:09:00.862Z,61.87
2019-06-15T16:10:00.868Z,73.12
2019-06-15T16:11:00.846Z,67.50
2019-06-15T16:12:00.832Z,73.12
2019-06-15T16:13:00.841Z,78.75
2019-06-15T16:14:00.807Z,78.75
2019-06-15T16:15:00.802Z,73.12
2019-06-15T16:16:00.782Z,67.50
2019-06-15T16:17:00.790Z,61.87
2019-06-15T16:18:00.768Z,61.87
2019-06-15T16:19:00.763Z,61.87
2019-06-15T16:20:00.742Z,56.25
2019-06-15T16:21:00.729Z,56.25
2019-06-15T16:22:00.723Z,56.25
2019-06-15T16:23:00.732Z,56.25
2019-06-15T16:24:00.709Z,56.25
2019-06-15T16:25:00.700Z,56.25
2019-06-15T16:26:00.671Z,50.62
2019-06-15T16:27:00.663Z,50.62
2019-06-15T16:28:00.651Z,45.00
2019-06-15T16:29:00.795Z,50.62
2019-06-15T16:30:00.630Z,50.62
2019-06-15T16:31:09.175Z,50.62
2019-06-15T16:32:22.430Z,50.62
2019-06-15T16:33:22.421Z,45.00
2019-06-15T16:34:22.415Z,45.00
2019-06-15T16:35:22.400Z,50.62
2019-06-15T16:36:22.392Z,39.37
2019-06-15T16:37:22.376Z,50.62
2019-06-15T16:38:22.375Z,56.25
2019-06-15T16:39:22.366Z,50.62
2019-06-15T16:40:22.344Z,56.25
2019-06-15T16:41:22.334Z,61.87
2019-06-15T16:42:22.326Z,56.25
2019-06-15T16:43:25.209Z,50.62
2019-06-15T16:44:22.306Z,50.62
2019-06-15T16:45:22.302Z,45.00
2019-06-15T16:46:22.280Z,45.00
2019-06-15T16:47:22.285Z,45.00
2019-06-15T16:48:22.265Z,50.62
2019-06-15T16:49:22.261Z,50.62
2019-06-15T16:50:22.259Z,50.62
2019-06-15T16:51:22.232Z,56.25
2019-06-15T16:52:22.211Z,56.25
2019-06-15T16:53:22.207Z,61.87
2019-06-15T16:54:22.186Z,61.87
2019-06-15T16:55:22.180Z,67.50
2019-06-15T16:56:22.167Z,67.50
2019-06-15T16:57:22.166Z,56.25
2019-06-15T16:58:22.144Z,50.62
2019-06-15T16:59:22.161Z,45.00
2019-06-15T17:00:22.126Z,45.00
2019-06-15T17:01:22.126Z,39.37
2019-06-15T17:02:22.120Z,39.37
2019-06-15T17:03:26.071Z,39.37
2019-06-15T17:04:46.697Z,39.37
2019-06-15T17:05:46.590Z,33.75
2019-06-15T17:06:46.021Z,33.75
2019-06-15T17:07:46.058Z,33.75
2019-06-15T17:08:46.509Z,39.37
2019-06-15T17:09:46.541Z,33.75
2019-06-15T17:10:44.448Z,33.75
2019-06-15T17:11:47.014Z,33.75
2019-06-15T17:12:44.427Z,39.37
2019-06-15T17:13:44.427Z,39.37
2019-06-15T17:14:44.398Z,45.00
2019-06-15T17:15:46.847Z,45.00
2019-06-15T17:16:46.044Z,45.00
2019-06-15T17:17:46.091Z,50.62
2019-06-15T17:18:46.903Z,50.62
2019-06-15T17:19:46.595Z,45.00
2019-06-15T17:20:46.517Z,45.00
2019-06-15T17:21:46.613Z,45.00
2019-06-15T17:22:47.110Z,39.37
2019-06-15T17:23:46.565Z,39.37
2019-06-15T17:24:45.995Z,39.37
2019-06-15T17:25:44.286Z,39.37
2019-06-15T17:26:46.703Z,39.37
2019-06-15T17:27:44.251Z,39.37
2019-06-15T17:28:46.008Z,39.37
2019-06-15T17:29:46.736Z,39.37
2019-06-15T17:30:44.215Z,39.37
2019-06-15T17:31:46.554Z,39.37
2019-06-15T17:32:44.198Z,39.37
2019-06-15T17:34:46.758Z,39.37
2019-06-15T17:35:56.111Z,39.37
2019-06-15T17:37:06.886Z,45.00
2019-06-15T17:38:06.367Z,45.00
2019-06-15T17:39:06.366Z,50.62
2019-06-15T17:40:06.342Z,50.62
2019-06-15T17:41:06.348Z,56.25
2019-06-15T17:42:07.030Z,56.25
2019-06-15T17:43:06.673Z,56.25
2019-06-15T17:44:06.297Z,56.25
2019-06-15T17:45:06.763Z,56.25
2019-06-15T17:46:07.253Z,56.25
2019-06-15T17:47:07.255Z,56.25
2019-06-15T17:48:06.529Z,61.87
2019-06-15T17:49:06.831Z,56.25
2019-06-15T17:50:07.474Z,56.25
2019-06-15T17:51:06.716Z,56.25
2019-06-15T17:52:06.648Z,56.25
2019-06-15T17:53:06.980Z,56.25
2019-06-15T17:54:06.445Z,56.25
2019-06-15T17:55:07.136Z,61.87
2019-06-15T17:56:07.356Z,61.87
2019-06-15T17:57:06.150Z,56.25
2019-06-15T17:58:06.628Z,56.25
2019-06-15T17:59:06.611Z,56.25
2019-06-15T18:00:06.125Z,56.25
2019-06-15T18:03:06.872Z,61.87
2019-06-15T18:04:07.888Z,61.87
2019-06-15T18:05:06.930Z,61.87
2019-06-15T18:10:07.246Z,45.00
2019-06-15T18:11:06.862Z,45.00
2019-06-15T18:12:06.564Z,39.37
2019-06-15T18:13:07.112Z,39.37
2019-06-15T18:15:05.957Z,39.37
2019-06-15T18:16:06.593Z,39.37
2019-06-15T18:17:07.220Z,39.37
2019-06-15T18:18:07.072Z,39.37
2019-06-15T18:19:06.952Z,33.75
2019-06-15T18:20:06.874Z,39.37
2019-06-15T18:22:07.190Z,39.37
2019-06-15T18:26:07.193Z,33.75
2019-06-15T18:27:08.991Z,33.75
2019-06-15T18:28:06.413Z,33.75
2019-06-15T18:30:06.570Z,33.75
2019-06-15T18:32:06.416Z,33.75
2019-06-15T18:34:10.309Z,33.75
2019-06-15T18:37:27.331Z,33.75
2019-06-15T18:49:27.194Z,22.50
2019-06-15T18:54:27.136Z,22.50
2019-06-15T18:58:27.097Z,16.87
2019-06-15T18:59:27.093Z,16.87
2019-06-15T19:14:27.270Z,11.25
2019-06-15T19:15:26.907Z,11.25
2019-06-15T19:21:26.838Z,5.62
